createdAt,value
2022-09-23T00:01:11.562Z,8.18
2022-09-23T00:03:42.158Z,7.20
2022-09-23T00:06:11.749Z,7.78
2022-09-23T00:08:38.779Z,7.43
2022-09-23T00:11:11.335Z,7.00
2022-09-23T00:13:40.802Z,7.43
2022-09-23T00:16:10.219Z,7.35
2022-09-23T00:18:36.987Z,7.30
2022-09-23T00:21:10.141Z,7.40
2022-09-23T00:23:37.818Z,8.40
2022-09-23T00:26:06.386Z,7.05
2022-09-23T00:28:33.231Z,7.20
2022-09-23T00:31:05.227Z,8.80
2022-09-23T00:33:32.200Z,7.45
2022-09-23T00:36:03.679Z,8.07
2022-09-23T00:38:30.407Z,7.18
2022-09-23T00:58:58.215Z,8.90
2022-09-23T01:05:09.467Z,7.65
2022-09-23T01:08:23.794Z,7.93
2022-09-23T01:10:50.594Z,8.82
2022-09-23T01:13:33.018Z,8.50
2022-09-23T01:41:45.549Z,8.20
2022-09-23T01:44:20.597Z,7.57
2022-09-23T01:46:52.403Z,8.57
2022-09-23T01:49:22.011Z,8.85
2022-09-23T01:51:57.332Z,9.48
2022-09-23T01:54:36.458Z,8.85
2022-09-23T01:57:10.381Z,8.20
2022-09-23T01:59:45.569Z,8.10
2022-09-23T02:02:23.820Z,8.15
2022-09-23T02:04:57.536Z,8.30
2022-09-23T02:07:27.405Z,7.68
2022-09-23T02:10:13.435Z,7.82
2022-09-23T02:12:45.731Z,8.70
2022-09-23T02:15:18.394Z,8.77
2022-09-23T02:18:02.731Z,8.80
2022-09-23T02:20:34.017Z,10.68
2022-09-23T02:23:09.938Z,9.40
2022-09-23T02:25:44.680Z,10.02
2022-09-23T02:28:31.121Z,9.57
2022-09-23T02:31:37.635Z,8.73
2022-09-23T02:34:04.477Z,8.95
2022-09-23T02:36:39.563Z,8.73
2022-09-23T02:39:11.402Z,8.57
2022-09-23T02:54:03.724Z,10.88
2022-09-23T02:56:30.253Z,9.65
2022-09-23T02:58:57.114Z,10.57
2022-09-23T03:01:56.443Z,11.13
2022-09-23T03:04:39.656Z,12.30
2022-09-23T03:07:12.947Z,12.03
2022-09-23T03:10:00.231Z,12.82
2022-09-23T03:12:32.474Z,14.50
2022-09-23T03:15:08.821Z,13.68
2022-09-23T03:17:43.964Z,16.90
2022-09-23T03:20:17.877Z,15.93
2022-09-23T03:22:53.697Z,15.93
2022-09-23T03:25:24.563Z,15.90
2022-09-23T03:27:57.143Z,16.65
2022-09-23T03:30:24.993Z,17.48
2022-09-23T03:32:52.364Z,17.10
2022-09-23T03:35:21.131Z,15.95
2022-09-23T03:37:56.536Z,16.10
2022-09-23T03:40:29.895Z,17.20
2022-09-23T03:42:58.661Z,17.23
2022-09-23T03:45:31.067Z,15.90
2022-09-23T03:47:57.963Z,15.05
2022-09-23T03:50:25.130Z,14.75
2022-09-23T03:52:51.635Z,15.85
2022-09-23T03:55:19.449Z,15.30
2022-09-23T03:57:46.114Z,15.82
2022-09-23T04:00:13.874Z,15.15
2022-09-23T04:02:40.807Z,14.93
2022-09-23T04:05:08.868Z,14.32
2022-09-23T04:07:35.465Z,15.60
2022-09-23T04:10:02.036Z,13.70
2022-09-23T04:12:28.625Z,14.73
2022-09-23T04:14:55.250Z,12.98
2022-09-23T04:17:21.795Z,14.10
2022-09-23T04:19:48.335Z,13.75
2022-09-23T04:22:14.913Z,13.43
2022-09-23T04:24:41.476Z,13.68
2022-09-23T04:27:08.459Z,12.93
2022-09-23T04:29:35.145Z,12.30
2022-09-23T04:32:02.032Z,12.77
2022-09-23T04:34:28.620Z,13.18
2022-09-23T04:36:55.196Z,13.25
2022-09-23T04:39:21.830Z,12.43
2022-09-23T04:44:49.661Z,12.93
2022-09-23T04:47:22.926Z,13.05
2022-09-23T04:49:57.780Z,13.80
2022-09-23T04:52:35.325Z,12.57
2022-09-23T04:55:11.239Z,13.90
2022-09-23T04:57:38.192Z,13.65
2022-09-23T05:00:05.251Z,12.45
2022-09-23T05:02:32.309Z,13.00
2022-09-23T05:05:00.824Z,12.75
2022-09-23T05:07:29.115Z,13.32
2022-09-23T05:09:55.802Z,13.88
2022-09-23T05:12:22.426Z,14.43
2022-09-23T05:14:49.095Z,13.55
2022-09-23T05:17:15.927Z,12.95
2022-09-23T05:19:42.721Z,12.80
2022-09-23T05:22:09.329Z,12.13
2022-09-23T05:24:36.727Z,12.15
2022-09-23T05:27:05.452Z,12.38
2022-09-23T05:29:32.223Z,11.70
2022-09-23T05:31:59.061Z,13.05
2022-09-23T05:34:25.879Z,13.50
2022-09-23T05:36:52.450Z,12.70
2022-09-23T05:39:19.109Z,11.88
2022-09-23T05:41:45.977Z,12.68
2022-09-23T05:44:12.755Z,11.02
2022-09-23T05:46:39.606Z,11.48
2022-09-23T05:49:07.486Z,11.80
2022-09-23T05:51:35.975Z,11.90
2022-09-23T05:54:04.487Z,12.80
2022-09-23T05:56:33.205Z,11.90
2022-09-23T05:59:01.740Z,11.32
2022-09-23T06:01:33.871Z,9.30
2022-09-23T06:04:02.614Z,9.52
2022-09-23T06:06:32.719Z,10.40
2022-09-23T06:09:00.333Z,10.32
2022-09-23T06:11:30.090Z,9.02
2022-09-23T06:14:04.221Z,9.70
2022-09-23T06:16:33.651Z,8.77
2022-09-23T06:19:06.212Z,9.52
2022-09-23T06:21:36.242Z,11.27
2022-09-23T06:24:03.376Z,11.63
2022-09-23T06:26:32.821Z,10.10
2022-09-23T06:29:01.237Z,10.15
2022-09-23T06:31:27.933Z,9.20
2022-09-23T06:34:06.714Z,9.90
2022-09-23T06:36:43.468Z,9.93
2022-09-23T06:39:10.938Z,9.00
2022-09-23T06:41:38.121Z,8.13
2022-09-23T06:45:35.129Z,8.18
2022-09-23T06:48:04.904Z,8.43
2022-09-23T06:50:31.894Z,8.65
2022-09-23T06:52:58.562Z,8.82
2022-09-23T06:55:27.270Z,9.77
2022-09-23T06:57:55.357Z,9.07
2022-09-23T07:00:21.926Z,8.75
2022-09-23T07:02:49.062Z,8.75
2022-09-23T07:05:17.360Z,7.47
2022-09-23T07:07:45.046Z,7.40
2022-09-23T07:10:12.571Z,7.93
2022-09-23T07:12:39.302Z,7.80
2022-09-23T07:15:07.230Z,7.68
2022-09-23T07:17:35.092Z,6.85
2022-09-23T07:20:02.174Z,6.50
2022-09-23T07:22:28.775Z,7.65
2022-09-23T07:24:58.209Z,7.18
2022-09-23T07:27:25.958Z,7.40
2022-09-23T07:29:53.623Z,7.40
2022-09-23T07:32:22.140Z,7.43
2022-09-23T07:34:49.178Z,7.95
2022-09-23T07:37:17.349Z,7.70
2022-09-23T07:39:45.161Z,5.85
2022-09-23T07:42:13.345Z,5.65
2022-09-23T07:44:43.319Z,5.60
2022-09-23T07:47:09.999Z,5.53
2022-09-23T07:49:36.812Z,4.70
2022-09-23T07:52:04.893Z,4.88
2022-09-23T07:54:31.539Z,4.97
2022-09-23T07:56:59.216Z,4.78
2022-09-23T07:59:27.094Z,5.28
2022-09-23T08:01:54.954Z,4.03
2022-09-23T08:04:28.263Z,4.40
2022-09-23T08:06:58.486Z,4.18
2022-09-23T08:09:32.129Z,4.78
2022-09-23T08:14:25.479Z,4.13
2022-09-23T08:16:52.464Z,4.50
2022-09-23T08:19:19.469Z,4.78
2022-09-23T08:21:47.662Z,4.07
2022-09-23T08:24:19.467Z,4.70
2022-09-23T08:26:47.891Z,3.60
2022-09-23T08:29:16.583Z,3.53
2022-09-23T08:31:43.180Z,3.38
2022-09-23T08:34:10.105Z,4.13
2022-09-23T08:36:36.763Z,3.85
2022-09-23T08:39:04.621Z,4.28
2022-09-23T08:41:59.096Z,3.78
2022-09-23T08:47:31.667Z,4.43
2022-09-23T08:50:25.420Z,4.68
2022-09-23T08:56:18.038Z,3.90
2022-09-23T08:59:14.992Z,4.50
2022-09-23T09:02:54.418Z,3.90
2022-09-23T09:20:05.997Z,3.35
2022-09-23T09:22:48.733Z,2.00
2022-09-23T09:25:58.921Z,2.47
2022-09-23T09:29:11.377Z,2.80
2022-09-23T09:31:54.899Z,2.67
2022-09-23T09:34:30.013Z,1.80
2022-09-23T09:37:16.079Z,1.90
2022-09-23T09:39:49.227Z,2.05
2022-09-23T09:42:29.266Z,1.98
2022-09-23T09:45:01.416Z,1.50
2022-09-23T09:48:05.994Z,1.70
2022-09-23T09:50:49.442Z,1.60
2022-09-23T09:53:31.536Z,1.63
2022-09-23T09:56:09.408Z,1.60
2022-09-23T09:59:16.667Z,1.83
2022-09-23T10:02:08.355Z,1.58
2022-09-23T10:04:41.723Z,1.50
2022-09-23T10:07:27.746Z,1.80
2022-09-23T10:10:01.897Z,0.80
2022-09-23T10:12:50.066Z,1.10
2022-09-23T10:15:45.186Z,0.98
2022-09-23T10:18:31.858Z,0.82
2022-09-23T10:21:08.226Z,1.10
2022-09-23T10:23:40.460Z,1.13
2022-09-23T10:26:17.622Z,1.02
2022-09-23T10:29:14.303Z,1.00
2022-09-23T10:31:41.200Z,0.80
2022-09-23T10:34:30.041Z,0.80
2022-09-23T10:37:10.053Z,0.73
2022-09-23T10:39:55.590Z,0.82
2022-09-23T10:42:45.708Z,0.80
2022-09-23T10:48:00.141Z,1.10
2022-09-23T10:50:46.226Z,0.80
2022-09-23T10:53:23.679Z,1.25
2022-09-23T10:56:14.168Z,0.70
2022-09-23T10:58:59.180Z,0.90
2022-09-23T11:01:37.990Z,0.60
2022-09-23T11:04:16.590Z,0.45
2022-09-23T11:07:47.652Z,0.70
2022-09-23T11:10:49.780Z,0.85
2022-09-23T11:14:04.485Z,0.85
2022-09-23T11:19:13.945Z,1.02
2022-09-23T11:25:33.780Z,0.88
2022-09-23T11:39:35.124Z,1.15
2022-09-23T11:42:09.335Z,1.63
2022-09-23T11:44:42.887Z,1.23
2022-09-23T11:53:51.146Z,2.10
2022-09-23T11:56:34.596Z,1.20
2022-09-23T11:59:39.955Z,13.95
2022-09-23T12:02:21.692Z,2.70
2022-09-23T12:05:25.649Z,3.05
2022-09-23T12:08:09.697Z,1.65
2022-09-23T12:10:54.813Z,0.80
2022-09-23T12:13:36.257Z,0.70
2022-09-23T12:16:19.859Z,0.63
2022-09-23T12:19:01.243Z,0.98
2022-09-23T12:21:51.525Z,0.82
2022-09-23T12:24:33.184Z,0.90
2022-09-23T12:27:05.754Z,0.90
2022-09-23T12:29:35.433Z,1.10
2022-09-23T12:32:10.461Z,4.00
2022-09-23T12:34:52.193Z,2.85
2022-09-23T12:37:34.340Z,1.20
2022-09-23T12:40:31.489Z,1.10
2022-09-23T12:43:01.760Z,1.20
2022-09-23T12:49:02.098Z,3.80
2022-09-23T12:51:34.515Z,1.02
2022-09-23T12:54:04.173Z,1.20
2022-09-23T12:56:36.652Z,1.35
2022-09-23T12:59:25.248Z,1.73
2022-09-23T13:01:52.656Z,1.75
2022-09-23T13:05:01.537Z,1.30
2022-09-23T13:07:34.042Z,0.85
2022-09-23T13:10:13.866Z,1.10
2022-09-23T13:12:43.729Z,2.95
2022-09-23T13:15:29.102Z,1.40
2022-09-23T13:18:54.700Z,1.83
2022-09-23T13:21:42.960Z,1.42
2022-09-23T13:24:31.269Z,1.33
2022-09-23T13:27:08.584Z,1.35
2022-09-23T13:29:50.917Z,1.50
2022-09-23T13:32:21.806Z,1.63
2022-09-23T13:35:06.472Z,1.00
2022-09-23T13:37:46.321Z,1.73
2022-09-23T13:40:23.983Z,1.60
2022-09-23T13:43:03.336Z,1.20
2022-09-23T13:45:31.719Z,1.05
2022-09-23T13:48:11.253Z,1.00
2022-09-23T13:50:40.865Z,4.45
2022-09-23T13:53:10.181Z,3.58
2022-09-23T13:55:38.860Z,1.10
2022-09-23T13:58:24.490Z,1.30
2022-09-23T14:00:51.665Z,1.40
2022-09-23T14:03:32.423Z,0.88
2022-09-23T14:06:10.381Z,1.10
2022-09-23T14:08:39.494Z,1.20
2022-09-23T14:11:06.369Z,1.10
2022-09-23T14:13:40.411Z,4.10
2022-09-23T14:16:11.015Z,1.20
2022-09-23T14:18:40.451Z,0.80
2022-09-23T14:21:31.773Z,1.80
2022-09-23T14:24:12.196Z,1.38
2022-09-23T14:26:40.208Z,0.90
2022-09-23T14:29:15.146Z,1.10
2022-09-23T14:31:44.071Z,1.83
2022-09-23T14:34:39.476Z,0.68
2022-09-23T14:37:53.917Z,18.10
2022-09-23T14:40:30.203Z,6.10
2022-09-23T14:43:24.530Z,2.15
2022-09-23T15:02:40.396Z,1.23
2022-09-23T15:05:19.532Z,1.40
2022-09-23T15:07:55.721Z,2.05
2022-09-23T15:10:32.659Z,3.78
2022-09-23T15:13:09.538Z,1.60
2022-09-23T15:15:36.530Z,1.40
2022-09-23T15:18:06.634Z,1.70
2022-09-23T15:20:34.184Z,2.22
2022-09-23T15:23:01.242Z,2.58
2022-09-23T15:25:35.680Z,2.00
2022-09-23T15:28:05.909Z,1.63
2022-09-23T15:30:36.311Z,1.55
2022-09-23T15:33:02.993Z,1.52
2022-09-23T15:35:32.284Z,1.42
2022-09-23T15:38:02.023Z,1.77
2022-09-23T15:40:33.807Z,1.42
2022-09-23T15:43:07.597Z,1.40
2022-09-23T15:45:40.344Z,1.95
2022-09-23T15:48:13.302Z,1.60
2022-09-23T15:50:45.630Z,1.70
2022-09-23T15:53:18.128Z,1.42
2022-09-23T15:55:45.582Z,1.50
2022-09-23T15:58:12.203Z,1.60
2022-09-23T16:00:39.109Z,2.00
2022-09-23T16:03:06.716Z,1.73
2022-09-23T16:05:39.080Z,1.65
2022-09-23T16:08:09.170Z,2.08
2022-09-23T16:10:37.481Z,2.15
2022-09-23T16:13:06.609Z,2.00
2022-09-23T16:15:33.481Z,1.63
2022-09-23T16:18:00.842Z,1.60
2022-09-23T16:20:30.193Z,3.47
2022-09-23T16:23:00.700Z,7.07
2022-09-23T16:25:29.953Z,5.00
2022-09-23T16:27:58.438Z,2.80
2022-09-23T16:30:30.648Z,2.78
2022-09-23T16:32:57.339Z,3.00
2022-09-23T16:35:28.352Z,2.25
2022-09-23T16:37:56.163Z,2.42
2022-09-23T16:40:24.106Z,2.60
2022-09-23T16:42:52.441Z,2.60
2022-09-23T16:45:23.071Z,2.65
2022-09-23T17:06:08.285Z,3.08
2022-09-23T17:08:35.344Z,2.78
2022-09-23T17:11:03.644Z,6.25
2022-09-23T17:13:31.693Z,6.53
2022-09-23T17:15:59.761Z,5.93
2022-09-23T17:18:29.310Z,5.43
2022-09-23T17:21:03.789Z,6.70
2022-09-23T17:23:32.703Z,6.70
2022-09-23T17:26:01.301Z,6.53
2022-09-23T17:28:29.172Z,6.07
2022-09-23T17:31:02.068Z,6.25
2022-09-23T17:33:34.742Z,5.93
2022-09-23T17:36:09.141Z,4.65
2022-09-23T17:38:45.891Z,4.50
2022-09-23T17:41:16.339Z,5.10
2022-09-23T17:43:49.253Z,5.63
2022-09-23T17:46:35.761Z,6.30
2022-09-23T17:49:08.097Z,8.98
2022-09-23T17:51:40.452Z,7.45
2022-09-23T19:02:04.598Z,7.72
2022-09-23T19:04:48.648Z,7.57
2022-09-23T19:21:31.414Z,11.43
2022-09-23T19:24:09.506Z,11.30
2022-09-23T19:27:06.440Z,8.38
2022-09-23T19:29:57.699Z,5.50
2022-09-23T19:32:30.794Z,4.63
2022-09-23T19:35:03.093Z,6.00
2022-09-23T19:37:32.116Z,4.70
2022-09-23T19:40:05.971Z,4.97
2022-09-23T19:42:36.160Z,4.20
2022-09-23T19:45:08.513Z,3.90
2022-09-23T19:47:43.391Z,4.88
2022-09-23T19:50:21.787Z,5.70
2022-09-23T19:52:53.157Z,4.63
2022-09-23T19:55:46.152Z,5.75
2022-09-23T19:58:15.770Z,4.00
2022-09-23T20:00:48.318Z,4.25
2022-09-23T20:03:19.265Z,7.93
2022-09-23T20:05:57.895Z,8.85
2022-09-23T20:08:32.169Z,13.98
2022-09-23T20:11:00.435Z,9.77
2022-09-23T20:13:28.028Z,5.68
2022-09-23T20:15:57.915Z,17.10
2022-09-23T20:18:28.749Z,5.15
2022-09-23T20:20:56.507Z,6.47
2022-09-23T20:23:25.138Z,8.98
2022-09-23T20:29:06.865Z,13.90
2022-09-23T20:37:27.816Z,14.20
2022-09-23T20:40:14.762Z,14.48
2022-09-23T20:42:54.852Z,14.30
2022-09-23T20:45:27.317Z,15.38
2022-09-23T20:52:35.052Z,17.17
2022-09-23T20:55:02.558Z,20.17
2022-09-23T20:57:29.870Z,21.17
2022-09-23T20:59:56.426Z,13.25
2022-09-23T21:02:23.129Z,10.23
2022-09-23T21:04:49.756Z,18.30
2022-09-23T21:07:16.523Z,8.43
2022-09-23T21:09:43.101Z,7.53
2022-09-23T21:12:09.677Z,6.68
2022-09-23T21:14:36.220Z,7.32
2022-09-23T21:17:02.757Z,6.43
2022-09-23T21:19:29.372Z,5.47
2022-09-23T21:21:55.969Z,5.85
2022-09-23T21:24:53.595Z,5.13
2022-09-23T21:27:09.067Z,5.28
2022-09-23T21:29:35.611Z,5.13
2022-09-23T21:32:02.376Z,4.78
2022-09-23T21:34:32.435Z,5.55
2022-09-23T21:36:59.002Z,7.25
2022-09-23T21:39:25.586Z,6.70
2022-09-23T21:41:52.168Z,4.55
2022-09-23T21:44:18.699Z,4.85
2022-09-23T21:46:45.297Z,4.43
2022-09-23T21:49:12.065Z,5.97
2022-09-23T21:51:41.193Z,5.63
2022-09-23T21:54:15.757Z,6.90
2022-09-23T21:56:43.522Z,9.52
2022-09-23T21:59:10.507Z,11.27
2022-09-23T22:01:41.065Z,13.35
2022-09-23T22:04:16.204Z,40.53
2022-09-23T22:06:42.971Z,26.60
2022-09-23T22:09:15.594Z,14.23
2022-09-23T22:12:01.287Z,11.73
2022-09-23T22:14:28.170Z,9.48
2022-09-23T22:16:57.831Z,9.15
2022-09-23T22:19:40.232Z,6.55
2022-09-23T22:22:13.892Z,5.55
2022-09-23T22:24:45.914Z,6.30
2022-09-23T22:27:14.239Z,5.10
2022-09-23T22:30:00.074Z,5.63
2022-09-23T22:32:42.003Z,4.72
2022-09-23T22:35:13.852Z,4.90
2022-09-23T22:37:40.500Z,5.13
2022-09-23T22:40:10.696Z,5.50
2022-09-23T22:42:37.580Z,4.90
2022-09-23T22:45:05.998Z,5.10
2022-09-23T22:47:37.195Z,4.53
2022-09-23T22:53:36.654Z,5.15
2022-09-23T22:56:03.446Z,5.60
2022-09-23T22:58:32.491Z,5.47
2022-09-23T23:00:59.653Z,5.25
2022-09-23T23:03:30.551Z,4.38
2022-09-23T23:06:00.826Z,4.63
2022-09-23T23:08:31.366Z,5.18
2022-09-23T23:10:59.065Z,4.75
2022-09-23T23:13:32.796Z,5.95
2022-09-23T23:16:04.514Z,4.88
2022-09-23T23:18:36.040Z,4.97
2022-09-23T23:21:19.702Z,6.50
2022-09-23T23:23:52.291Z,6.60
2022-09-23T23:26:24.049Z,7.15
2022-09-23T23:29:00.828Z,6.35
2022-09-23T23:31:29.361Z,5.55
2022-09-23T23:33:59.025Z,5.90
2022-09-23T23:36:25.591Z,5.97
2022-09-23T23:38:52.556Z,6.65
2022-09-23T23:41:22.599Z,6.45
2022-09-23T23:43:55.476Z,6.18
2022-09-23T23:46:25.538Z,7.13
2022-09-23T23:48:53.754Z,6.78
2022-09-23T23:51:21.078Z,5.68
2022-09-23T23:53:50.875Z,6.32
2022-09-23T23:56:19.763Z,5.95
2022-09-23T23:58:46.995Z,6.03
